sensor_id;sensor_type;location;lat;lon;timestamp;temperature;humidity
7331;DHT22;3706;49.198;7.064;2024-01-15T00:00:34;-3.50;99.90
7331;DHT22;3706;49.198;7.064;2024-01-15T00:03:02;-3.40;99.90
7331;DHT22;3706;49.198;7.064;2024-01-15T00:05:29;-3.20;99.90
7331;DHT22;3706;49.198;7.064;2024-01-15T00:07:56;-3.20;99.90
7331;DHT22;3706;49.198;7.064;2024-01-15T00:10:23;-3.20;99.90
7331;DHT22;3706;49.198;7.064;2024-01-15T00:12:50;-3.10;99.90
7331;DHT22;3706;49.198;7.064;2024-01-15T00:15:17;-3.10;99.90
7331;DHT22;3706;49.198;7.064;2024-01-15T00:17:45;-3.10;99.90
7331;DHT22;3706;49.198;7.064;2024-01-15T00:20:16;-3.10;99.90
7331;DHT22;3706;49.198;7.064;2024-01-15T00:22:50;-3.20;99.90
7331;DHT22;3706;49.198;7.064;2024-01-15T00:25:19;-3.20;99.90
7331;DHT22;3706;49.198;7.064;2024-01-15T00:27:46;-3.20;99.90
7331;DHT22;3706;49.198;7.064;2024-01-15T00:30:14;-3.30;99.90
7331;DHT22;3706;49.198;7.064;2024-01-15T00:32:41;-3.40;99.90
7331;DHT22;3706;49.198;7.064;2024-01-15T00:35:09;-3.40;99.90
7331;DHT22;3706;49.198;7.064;2024-01-15T00:37:39;-3.40;99.90
7331;DHT22;3706;49.198;7.064;2024-01-15T00:40:09;-3.40;99.90
7331;DHT22;3706;49.198;7.064;2024-01-15T00:42:36;-3.30;99.90
7331;DHT22;3706;49.198;7.064;2024-01-15T00:45:03;-3.30;99.90
7331;DHT22;3706;49.198;7.064;2024-01-15T00:47:33;-3.20;99.90
7331;DHT22;3706;49.198;7.064;2024-01-15T00:50:00;-3.20;99.90
7331;DHT22;3706;49.198;7.064;2024-01-15T00:52:28;-3.20;99.90
7331;DHT22;3706;49.198;7.064;2024-01-15T00:54:55;-3.10;99.90
7331;DHT22;3706;49.198;7.064;2024-01-15T00:57:22;-3.10;99.90
7331;DHT22;3706;49.198;7.064;2024-01-15T00:59:49;-3.10;99.90
7331;DHT22;3706;49.198;7.064;2024-01-15T01:02:16;-3.10;99.90
7331;DHT22;3706;49.198;7.064;2024-01-15T01:04:43;-3.10;99.90
7331;DHT22;3706;49.198;7.064;2024-01-15T01:07:10;-3.20;99.90
7331;DHT22;3706;49.198;7.064;2024-01-15T01:09:39;-3.20;99.90
7331;DHT22;3706;49.198;7.064;2024-01-15T01:12:06;-3.30;99.90
7331;DHT22;3706;49.198;7.064;2024-01-15T01:14:33;-3.30;99.90
7331;DHT22;3706;49.198;7.064;2024-01-15T01:17:00;-3.40;99.90
7331;DHT22;3706;49.198;7.064;2024-01-15T01:19:27;-3.40;99.90
7331;DHT22;3706;49.198;7.064;2024-01-15T01:21:56;-3.30;99.90
7331;DHT22;3706;49.198;7.064;2024-01-15T01:24:23;-3.30;99.90
7331;DHT22;3706;49.198;7.064;2024-01-15T01:26:51;-3.30;99.90
7331;DHT22;3706;49.198;7.064;2024-01-15T01:29:18;-3.10;99.90
7331;DHT22;3706;49.198;7.064;2024-01-15T01:31:45;-3.10;99.90
7331;DHT22;3706;49.198;7.064;2024-01-15T01:34:14;-3.10;99.90
7331;DHT22;3706;49.198;7.064;2024-01-15T01:36:41;-3.10;99.90
7331;DHT22;3706;49.198;7.064;2024-01-15T01:39:08;-3.20;99.90
7331;DHT22;3706;49.198;7.064;2024-01-15T01:41:36;-3.10;99.90
7331;DHT22;3706;49.198;7.064;2024-01-15T01:44:04;-3.10;99.90
7331;DHT22;3706;49.198;7.064;2024-01-15T01:46:31;-3.00;99.90
7331;DHT22;3706;49.198;7.064;2024-01-15T01:48:59;-2.90;99.90
7331;DHT22;3706;49.198;7.064;2024-01-15T01:51:31;-3.00;99.90
7331;DHT22;3706;49.198;7.064;2024-01-15T01:53:58;-2.80;99.90
7331;DHT22;3706;49.198;7.064;2024-01-15T01:56:25;-2.80;99.90
7331;DHT22;3706;49.198;7.064;2024-01-15T01:58:53;-2.70;99.90
7331;DHT22;3706;49.198;7.064;2024-01-15T02:01:22;-2.70;99.90
7331;DHT22;3706;49.198;7.064;2024-01-15T02:03:49;-2.80;99.90
7331;DHT22;3706;49.198;7.064;2024-01-15T02:06:16;-2.80;99.90
7331;DHT22;3706;49.198;7.064;2024-01-15T02:08:43;-2.90;99.90
7331;DHT22;3706;49.198;7.064;2024-01-15T02:11:10;-2.90;99.90
7331;DHT22;3706;49.198;7.064;2024-01-15T02:13:38;-2.90;99.90
7331;DHT22;3706;49.198;7.064;2024-01-15T02:16:06;-2.90;99.90
7331;DHT22;3706;49.198;7.064;2024-01-15T02:18:41;-3.00;99.90
7331;DHT22;3706;49.198;7.064;2024-01-15T02:21:09;-3.00;99.90
7331;DHT22;3706;49.198;7.064;2024-01-15T02:23:38;-2.90;99.90
7331;DHT22;3706;49.198;7.064;2024-01-15T02:26:05;-3.00;99.90
7331;DHT22;3706;49.198;7.064;2024-01-15T02:28:33;-3.00;99.90
7331;DHT22;3706;49.198;7.064;2024-01-15T02:31:00;-2.90;99.90
7331;DHT22;3706;49.198;7.064;2024-01-15T02:33:27;-2.90;99.90
7331;DHT22;3706;49.198;7.064;2024-01-15T02:35:55;-2.90;99.90
7331;DHT22;3706;49.198;7.064;2024-01-15T02:38:22;-2.80;99.90
7331;DHT22;3706;49.198;7.064;2024-01-15T02:40:50;-2.80;99.90
7331;DHT22;3706;49.198;7.064;2024-01-15T02:43:17;-2.80;99.90
7331;DHT22;3706;49.198;7.064;2024-01-15T02:45:45;-2.80;99.90
7331;DHT22;3706;49.198;7.064;2024-01-15T02:48:12;-2.80;99.90
7331;DHT22;3706;49.198;7.064;2024-01-15T02:50:42;-2.90;99.90
7331;DHT22;3706;49.198;7.064;2024-01-15T02:53:08;-2.80;99.90
7331;DHT22;3706;49.198;7.064;2024-01-15T02:55:35;-2.80;99.90
7331;DHT22;3706;49.198;7.064;2024-01-15T02:58:04;-2.80;99.90
7331;DHT22;3706;49.198;7.064;2024-01-15T03:00:31;-2.70;99.90
7331;DHT22;3706;49.198;7.064;2024-01-15T03:03:01;-2.70;99.90
7331;DHT22;3706;49.198;7.064;2024-01-15T03:05:28;-2.80;99.90
7331;DHT22;3706;49.198;7.064;2024-01-15T03:07:55;-2.80;99.90
7331;DHT22;3706;49.198;7.064;2024-01-15T03:10:22;-2.80;99.90
7331;DHT22;3706;49.198;7.064;2024-01-15T03:12:49;-2.80;99.90
7331;DHT22;3706;49.198;7.064;2024-01-15T03:15:17;-2.80;99.90
7331;DHT22;3706;49.198;7.064;2024-01-15T03:17:45;-2.70;99.90
7331;DHT22;3706;49.198;7.064;2024-01-15T03:20:12;-2.50;99.90
7331;DHT22;3706;49.198;7.064;2024-01-15T03:22:39;-2.50;99.90
7331;DHT22;3706;49.198;7.064;2024-01-15T03:25:06;-2.50;99.90
7331;DHT22;3706;49.198;7.064;2024-01-15T03:27:33;-2.40;99.90
7331;DHT22;3706;49.198;7.064;2024-01-15T03:30:01;-2.40;99.90
7331;DHT22;3706;49.198;7.064;2024-01-15T03:32:32;-2.40;99.90
7331;DHT22;3706;49.198;7.064;2024-01-15T03:34:59;-2.40;99.90
7331;DHT22;3706;49.198;7.064;2024-01-15T03:37:26;-2.50;99.90
7331;DHT22;3706;49.198;7.064;2024-01-15T03:39:53;-2.40;99.90
7331;DHT22;3706;49.198;7.064;2024-01-15T03:42:20;-2.40;99.90
7331;DHT22;3706;49.198;7.064;2024-01-15T03:44:47;-2.50;99.90
7331;DHT22;3706;49.198;7.064;2024-01-15T03:47:14;-2.40;99.90
7331;DHT22;3706;49.198;7.064;2024-01-15T03:49:42;-2.50;99.90
7331;DHT22;3706;49.198;7.064;2024-01-15T03:52:09;-2.30;99.90
7331;DHT22;3706;49.198;7.064;2024-01-15T03:54:36;-2.30;99.90
7331;DHT22;3706;49.198;7.064;2024-01-15T03:57:03;-2.20;99.90
7331;DHT22;3706;49.198;7.064;2024-01-15T03:59:30;-2.20;99.90
7331;DHT22;3706;49.198;7.064;2024-01-15T04:02:00;-2.20;99.90
7331;DHT22;3706;49.198;7.064;2024-01-15T04:04:30;-2.20;99.90
7331;DHT22;3706;49.198;7.064;2024-01-15T04:06:59;-2.20;99.90
7331;DHT22;3706;49.198;7.064;2024-01-15T04:09:26;-2.20;99.90
7331;DHT22;3706;49.198;7.064;2024-01-15T04:11:53;-2.20;99.90
7331;DHT22;3706;49.198;7.064;2024-01-15T04:14:20;-2.20;99.90
7331;DHT22;3706;49.198;7.064;2024-01-15T04:16:47;-2.30;99.90
7331;DHT22;3706;49.198;7.064;2024-01-15T04:19:14;-2.30;99.90
7331;DHT22;3706;49.198;7.064;2024-01-15T04:21:41;-2.30;99.90
7331;DHT22;3706;49.198;7.064;2024-01-15T04:24:09;-2.20;99.90
7331;DHT22;3706;49.198;7.064;2024-01-15T04:26:37;-2.10;99.90
7331;DHT22;3706;49.198;7.064;2024-01-15T04:29:04;-2.00;99.90
7331;DHT22;3706;49.198;7.064;2024-01-15T04:31:30;-2.00;99.90
7331;DHT22;3706;49.198;7.064;2024-01-15T04:33:57;-2.00;99.90
7331;DHT22;3706;49.198;7.064;2024-01-15T04:36:24;-2.00;99.90
7331;DHT22;3706;49.198;7.064;2024-01-15T04:38:51;-2.00;99.90
7331;DHT22;3706;49.198;7.064;2024-01-15T04:41:20;-2.10;99.90
7331;DHT22;3706;49.198;7.064;2024-01-15T04:43:47;-2.20;99.90
7331;DHT22;3706;49.198;7.064;2024-01-15T04:46:14;-2.20;99.90
7331;DHT22;3706;49.198;7.064;2024-01-15T04:48:41;-2.10;99.90
7331;DHT22;3706;49.198;7.064;2024-01-15T04:51:09;-2.10;99.90
7331;DHT22;3706;49.198;7.064;2024-01-15T04:53:36;-2.00;99.90
7331;DHT22;3706;49.198;7.064;2024-01-15T04:56:03;-2.00;99.90
7331;DHT22;3706;49.198;7.064;2024-01-15T04:58:32;-2.00;99.90
7331;DHT22;3706;49.198;7.064;2024-01-15T05:00:59;-2.00;99.90
7331;DHT22;3706;49.198;7.064;2024-01-15T05:03:26;-2.00;99.90
7331;DHT22;3706;49.198;7.064;2024-01-15T05:05:53;-2.00;99.90
7331;DHT22;3706;49.198;7.064;2024-01-15T05:08:20;-2.00;99.90
7331;DHT22;3706;49.198;7.064;2024-01-15T05:10:47;-2.00;99.90
7331;DHT22;3706;49.198;7.064;2024-01-15T05:13:14;-1.90;99.90
7331;DHT22;3706;49.198;7.064;2024-01-15T05:15:44;-2.00;99.90
7331;DHT22;3706;49.198;7.064;2024-01-15T05:18:11;-2.00;99.90
7331;DHT22;3706;49.198;7.064;2024-01-15T05:20:38;-2.00;99.90
7331;DHT22;3706;49.198;7.064;2024-01-15T05:23:04;-2.00;99.90
7331;DHT22;3706;49.198;7.064;2024-01-15T05:25:32;-2.00;99.90
7331;DHT22;3706;49.198;7.064;2024-01-15T05:27:59;-2.00;99.90
7331;DHT22;3706;49.198;7.064;2024-01-15T05:30:26;-1.90;99.90
7331;DHT22;3706;49.198;7.064;2024-01-15T05:32:54;-1.90;99.90
7331;DHT22;3706;49.198;7.064;2024-01-15T05:35:23;-1.70;99.90
7331;DHT22;3706;49.198;7.064;2024-01-15T05:37:50;-1.70;99.90
7331;DHT22;3706;49.198;7.064;2024-01-15T05:40:17;-1.80;99.90
7331;DHT22;3706;49.198;7.064;2024-01-15T05:42:43;-1.90;99.90
7331;DHT22;3706;49.198;7.064;2024-01-15T05:45:11;-1.90;99.90
7331;DHT22;3706;49.198;7.064;2024-01-15T05:47:37;-1.90;99.90
7331;DHT22;3706;49.198;7.064;2024-01-15T05:50:06;-2.00;99.90
7331;DHT22;3706;49.198;7.064;2024-01-15T05:52:33;-2.00;99.90
7331;DHT22;3706;49.198;7.064;2024-01-15T05:55:00;-1.90;99.90
7331;DHT22;3706;49.198;7.064;2024-01-15T05:57:27;-1.90;99.90
7331;DHT22;3706;49.198;7.064;2024-01-15T05:59:54;-1.90;99.90
7331;DHT22;3706;49.198;7.064;2024-01-15T06:02:21;-1.80;99.90
7331;DHT22;3706;49.198;7.064;2024-01-15T06:04:48;-1.80;99.90
7331;DHT22;3706;49.198;7.064;2024-01-15T06:07:17;-1.70;99.90
7331;DHT22;3706;49.198;7.064;2024-01-15T06:09:44;-1.70;99.90
7331;DHT22;3706;49.198;7.064;2024-01-15T06:12:11;-1.70;99.90
7331;DHT22;3706;49.198;7.064;2024-01-15T06:14:38;-1.80;99.90
7331;DHT22;3706;49.198;7.064;2024-01-15T06:17:06;-1.80;99.90
7331;DHT22;3706;49.198;7.064;2024-01-15T06:19:33;-1.90;99.90
7331;DHT22;3706;49.198;7.064;2024-01-15T06:22:00;-1.90;99.90
7331;DHT22;3706;49.198;7.064;2024-01-15T06:24:29;-1.90;99.90
7331;DHT22;3706;49.198;7.064;2024-01-15T06:26:55;-1.80;99.90
7331;DHT22;3706;49.198;7.064;2024-01-15T06:29:26;-1.80;99.90
7331;DHT22;3706;49.198;7.064;2024-01-15T06:31:53;-1.80;99.90
7331;DHT22;3706;49.198;7.064;2024-01-15T06:34:20;-1.80;99.90
7331;DHT22;3706;49.198;7.064;2024-01-15T06:36:47;-1.80;99.90
7331;DHT22;3706;49.198;7.064;2024-01-15T06:39:14;-1.70;99.90
7331;DHT22;3706;49.198;7.064;2024-01-15T06:41:42;-1.70;99.90
7331;DHT22;3706;49.198;7.064;2024-01-15T06:44:10;-1.70;99.90
7331;DHT22;3706;49.198;7.064;2024-01-15T06:46:41;-1.70;99.90
7331;DHT22;3706;49.198;7.064;2024-01-15T06:49:08;-1.70;99.90
7331;DHT22;3706;49.198;7.064;2024-01-15T06:51:35;-1.70;99.90
7331;DHT22;3706;49.198;7.064;2024-01-15T06:54:03;-1.70;99.90
7331;DHT22;3706;49.198;7.064;2024-01-15T06:56:30;-1.70;99.90
7331;DHT22;3706;49.198;7.064;2024-01-15T06:58:59;-1.60;99.90
7331;DHT22;3706;49.198;7.064;2024-01-15T07:01:26;-1.80;99.90
7331;DHT22;3706;49.198;7.064;2024-01-15T07:03:53;-1.80;99.90
7331;DHT22;3706;49.198;7.064;2024-01-15T07:06:20;-1.80;99.90
7331;DHT22;3706;49.198;7.064;2024-01-15T07:08:46;-1.80;99.90
7331;DHT22;3706;49.198;7.064;2024-01-15T07:11:14;-1.80;99.90
7331;DHT22;3706;49.198;7.064;2024-01-15T07:13:41;-1.80;99.90
7331;DHT22;3706;49.198;7.064;2024-01-15T07:16:11;-1.80;99.90
7331;DHT22;3706;49.198;7.064;2024-01-15T07:18:41;-1.80;99.90
7331;DHT22;3706;49.198;7.064;2024-01-15T07:21:08;-1.80;99.90
7331;DHT22;3706;49.198;7.064;2024-01-15T07:23:35;-1.80;99.90
7331;DHT22;3706;49.198;7.064;2024-01-15T07:26:02;-1.80;99.90
7331;DHT22;3706;49.198;7.064;2024-01-15T07:28:31;-1.80;99.90
7331;DHT22;3706;49.198;7.064;2024-01-15T07:30:58;-1.70;99.90
7331;DHT22;3706;49.198;7.064;2024-01-15T07:33:26;-1.70;99.90
7331;DHT22;3706;49.198;7.064;2024-01-15T07:35:53;-1.70;99.90
7331;DHT22;3706;49.198;7.064;2024-01-15T07:38:20;-1.70;99.90
7331;DHT22;3706;49.198;7.064;2024-01-15T07:40:48;-1.80;99.90
7331;DHT22;3706;49.198;7.064;2024-01-15T07:43:15;-1.80;99.90
7331;DHT22;3706;49.198;7.064;2024-01-15T07:45:42;-1.80;99.90
7331;DHT22;3706;49.198;7.064;2024-01-15T07:48:09;-1.80;99.90
7331;DHT22;3706;49.198;7.064;2024-01-15T07:50:40;-1.70;99.90
7331;DHT22;3706;49.198;7.064;2024-01-15T07:53:07;-1.70;99.90
7331;DHT22;3706;49.198;7.064;2024-01-15T07:55:34;-1.70;99.90
7331;DHT22;3706;49.198;7.064;2024-01-15T07:58:01;-1.70;99.90
7331;DHT22;3706;49.198;7.064;2024-01-15T08:00:28;-1.70;99.90
7331;DHT22;3706;49.198;7.064;2024-01-15T08:02:55;-1.70;99.90
7331;DHT22;3706;49.198;7.064;2024-01-15T08:05:22;-1.70;99.90
7331;DHT22;3706;49.198;7.064;2024-01-15T08:07:51;-1.70;99.90
7331;DHT22;3706;49.198;7.064;2024-01-15T08:10:18;-1.60;99.90
7331;DHT22;3706;49.198;7.064;2024-01-15T08:12:45;-1.60;99.90
7331;DHT22;3706;49.198;7.064;2024-01-15T08:15:12;-1.60;99.90
7331;DHT22;3706;49.198;7.064;2024-01-15T08:17:39;-1.50;99.90
7331;DHT22;3706;49.198;7.064;2024-01-15T08:20:07;-1.50;99.90
7331;DHT22;3706;49.198;7.064;2024-01-15T08:22:36;-1.50;99.90
7331;DHT22;3706;49.198;7.064;2024-01-15T08:25:05;-1.50;99.90
7331;DHT22;3706;49.198;7.064;2024-01-15T08:27:32;-1.50;99.90
7331;DHT22;3706;49.198;7.064;2024-01-15T08:29:59;-1.50;99.90
7331;DHT22;3706;49.198;7.064;2024-01-15T08:32:26;-1.40;99.90
7331;DHT22;3706;49.198;7.064;2024-01-15T08:34:53;-1.40;99.90
7331;DHT22;3706;49.198;7.064;2024-01-15T08:37:20;-1.40;99.90
7331;DHT22;3706;49.198;7.064;2024-01-15T08:39:47;-1.40;99.90
7331;DHT22;3706;49.198;7.064;2024-01-15T08:42:15;-1.40;99.90
7331;DHT22;3706;49.198;7.064;2024-01-15T08:44:42;-1.30;99.90
7331;DHT22;3706;49.198;7.064;2024-01-15T08:47:09;-1.30;99.90
7331;DHT22;3706;49.198;7.064;2024-01-15T08:49:37;-1.20;99.90
7331;DHT22;3706;49.198;7.064;2024-01-15T08:52:04;-1.10;99.90
7331;DHT22;3706;49.198;7.064;2024-01-15T08:54:31;-1.00;99.90
7331;DHT22;3706;49.198;7.064;2024-01-15T08:56:58;-1.00;99.90
7331;DHT22;3706;49.198;7.064;2024-01-15T08:59:29;-0.70;99.90
7331;DHT22;3706;49.198;7.064;2024-01-15T09:01:56;-0.80;99.90
7331;DHT22;3706;49.198;7.064;2024-01-15T09:04:23;-0.70;99.90
7331;DHT22;3706;49.198;7.064;2024-01-15T09:06:50;-0.60;99.90
7331;DHT22;3706;49.198;7.064;2024-01-15T09:09:17;-0.50;99.90
7331;DHT22;3706;49.198;7.064;2024-01-15T09:11:45;-0.30;99.90
7331;DHT22;3706;49.198;7.064;2024-01-15T09:14:12;-0.50;99.90
7331;DHT22;3706;49.198;7.064;2024-01-15T09:16:41;-0.50;99.90
7331;DHT22;3706;49.198;7.064;2024-01-15T09:19:08;-0.60;99.90
7331;DHT22;3706;49.198;7.064;2024-01-15T09:21:35;-0.60;99.90
7331;DHT22;3706;49.198;7.064;2024-01-15T09:24:05;-0.50;99.90
7331;DHT22;3706;49.198;7.064;2024-01-15T09:26:32;-0.50;99.90
7331;DHT22;3706;49.198;7.064;2024-01-15T09:28:59;-0.40;99.90
7331;DHT22;3706;49.198;7.064;2024-01-15T09:31:26;-0.40;99.90
7331;DHT22;3706;49.198;7.064;2024-01-15T09:33:55;-0.30;99.90
7331;DHT22;3706;49.198;7.064;2024-01-15T09:36:24;-0.20;99.90
7331;DHT22;3706;49.198;7.064;2024-01-15T09:38:51;-0.20;99.90
7331;DHT22;3706;49.198;7.064;2024-01-15T09:41:18;-0.20;99.90
7331;DHT22;3706;49.198;7.064;2024-01-15T09:43:46;-0.10;99.90
7331;DHT22;3706;49.198;7.064;2024-01-15T09:46:13;-0.20;99.90
7331;DHT22;3706;49.198;7.064;2024-01-15T09:48:42;-0.10;99.90
7331;DHT22;3706;49.198;7.064;2024-01-15T09:51:11;-0.10;99.90
7331;DHT22;3706;49.198;7.064;2024-01-15T09:53:39;-0.10;99.90
7331;DHT22;3706;49.198;7.064;2024-01-15T09:56:08;-0.10;99.90
7331;DHT22;3706;49.198;7.064;2024-01-15T09:58:38;-0.20;99.90
7331;DHT22;3706;49.198;7.064;2024-01-15T10:01:08;-0.10;99.90
7331;DHT22;3706;49.198;7.064;2024-01-15T10:03:38;0.00;99.90
7331;DHT22;3706;49.198;7.064;2024-01-15T10:06:07;-0.10;99.90
7331;DHT22;3706;49.198;7.064;2024-01-15T10:08:37;0.00;99.90
7331;DHT22;3706;49.198;7.064;2024-01-15T10:11:05;0.00;99.90
7331;DHT22;3706;49.198;7.064;2024-01-15T10:13:33;0.10;99.90
7331;DHT22;3706;49.198;7.064;2024-01-15T10:16:03;0.20;99.90
7331;DHT22;3706;49.198;7.064;2024-01-15T10:18:31;0.40;99.90
7331;DHT22;3706;49.198;7.064;2024-01-15T10:20:58;0.50;99.90
7331;DHT22;3706;49.198;7.064;2024-01-15T10:23:26;0.60;99.90
7331;DHT22;3706;49.198;7.064;2024-01-15T10:25:56;0.60;99.90
7331;DHT22;3706;49.198;7.064;2024-01-15T10:28:26;0.70;99.90
7331;DHT22;3706;49.198;7.064;2024-01-15T10:30:56;0.70;99.90
7331;DHT22;3706;49.198;7.064;2024-01-15T10:33:24;0.70;99.90
7331;DHT22;3706;49.198;7.064;2024-01-15T10:35:53;0.70;99.90
7331;DHT22;3706;49.198;7.064;2024-01-15T10:38:21;0.70;99.90
7331;DHT22;3706;49.198;7.064;2024-01-15T10:40:50;0.70;99.90
7331;DHT22;3706;49.198;7.064;2024-01-15T10:43:19;0.70;99.90
7331;DHT22;3706;49.198;7.064;2024-01-15T10:46:25;0.80;99.90
7331;DHT22;3706;49.198;7.064;2024-01-15T10:49:29;0.80;99.90
7331;DHT22;3706;49.198;7.064;2024-01-15T10:52:10;0.90;99.90
7331;DHT22;3706;49.198;7.064;2024-01-15T10:54:37;0.90;99.90
7331;DHT22;3706;49.198;7.064;2024-01-15T10:57:06;0.90;99.90
7331;DHT22;3706;49.198;7.064;2024-01-15T10:59:34;0.90;99.90
7331;DHT22;3706;49.198;7.064;2024-01-15T11:02:15;0.80;99.90
7331;DHT22;3706;49.198;7.064;2024-01-15T11:04:53;0.80;99.90
7331;DHT22;3706;49.198;7.064;2024-01-15T11:07:22;0.60;99.90
7331;DHT22;3706;49.198;7.064;2024-01-15T11:09:50;0.70;99.90
7331;DHT22;3706;49.198;7.064;2024-01-15T11:12:17;0.60;99.90
7331;DHT22;3706;49.198;7.064;2024-01-15T11:14:48;0.60;99.90
7331;DHT22;3706;49.198;7.064;2024-01-15T11:17:16;0.70;99.90
7331;DHT22;3706;49.198;7.064;2024-01-15T11:19:45;0.70;99.90
7331;DHT22;3706;49.198;7.064;2024-01-15T11:25:34;0.80;99.90
7331;DHT22;3706;49.198;7.064;2024-01-15T11:28:02;0.80;99.90
7331;DHT22;3706;49.198;7.064;2024-01-15T11:30:31;0.90;99.90
7331;DHT22;3706;49.198;7.064;2024-01-15T11:33:02;1.00;99.90
7331;DHT22;3706;49.198;7.064;2024-01-15T11:35:50;1.00;99.90
7331;DHT22;3706;49.198;7.064;2024-01-15T11:38:29;1.00;99.90
7331;DHT22;3706;49.198;7.064;2024-01-15T11:40:59;1.10;99.90
7331;DHT22;3706;49.198;7.064;2024-01-15T11:43:28;1.10;99.90
7331;DHT22;3706;49.198;7.064;2024-01-15T11:46:03;1.20;99.90
7331;DHT22;3706;49.198;7.064;2024-01-15T11:48:39;1.10;99.90
7331;DHT22;3706;49.198;7.064;2024-01-15T11:51:11;1.00;99.90
7331;DHT22;3706;49.198;7.064;2024-01-15T11:53:44;1.00;99.90
7331;DHT22;3706;49.198;7.064;2024-01-15T11:56:15;1.00;99.90
7331;DHT22;3706;49.198;7.064;2024-01-15T11:58:43;1.00;99.90
7331;DHT22;3706;49.198;7.064;2024-01-15T12:01:12;1.10;99.90
7331;DHT22;3706;49.198;7.064;2024-01-15T12:03:47;1.10;99.90
7331;DHT22;3706;49.198;7.064;2024-01-15T12:06:15;1.10;99.90
7331;DHT22;3706;49.198;7.064;2024-01-15T12:08:42;1.00;99.90
7331;DHT22;3706;49.198;7.064;2024-01-15T12:11:13;1.00;99.90
7331;DHT22;3706;49.198;7.064;2024-01-15T12:13:43;1.00;99.90
7331;DHT22;3706;49.198;7.064;2024-01-15T12:16:11;1.00;99.90
7331;DHT22;3706;49.198;7.064;2024-01-15T12:18:38;1.00;99.90
7331;DHT22;3706;49.198;7.064;2024-01-15T12:21:05;1.00;99.90
7331;DHT22;3706;49.198;7.064;2024-01-15T12:23:33;1.00;99.90
7331;DHT22;3706;49.198;7.064;2024-01-15T12:26:16;1.10;99.90
7331;DHT22;3706;49.198;7.064;2024-01-15T12:28:45;1.20;99.90
7331;DHT22;3706;49.198;7.064;2024-01-15T12:37:59;1.40;99.90
7331;DHT22;3706;49.198;7.064;2024-01-15T12:40:27;1.40;99.90
7331;DHT22;3706;49.198;7.064;2024-01-15T12:42:57;1.30;99.90
7331;DHT22;3706;49.198;7.064;2024-01-15T12:46:15;1.30;99.90
7331;DHT22;3706;49.198;7.064;2024-01-15T12:48:41;1.40;99.90
7331;DHT22;3706;49.198;7.064;2024-01-15T12:51:38;1.70;99.90
7331;DHT22;3706;49.198;7.064;2024-01-15T12:54:06;1.90;99.90
7331;DHT22;3706;49.198;7.064;2024-01-15T12:56:33;2.00;99.90
7331;DHT22;3706;49.198;7.064;2024-01-15T12:59:00;2.20;99.90
7331;DHT22;3706;49.198;7.064;2024-01-15T13:05:02;2.40;99.90
7331;DHT22;3706;49.198;7.064;2024-01-15T13:08:02;2.30;99.90
7331;DHT22;3706;49.198;7.064;2024-01-15T13:14:10;2.00;99.90
7331;DHT22;3706;49.198;7.064;2024-01-15T13:16:40;2.00;99.90
7331;DHT22;3706;49.198;7.064;2024-01-15T13:19:08;1.90;99.90
7331;DHT22;3706;49.198;7.064;2024-01-15T13:22:02;1.90;99.90
7331;DHT22;3706;49.198;7.064;2024-01-15T13:24:37;1.90;99.90
7331;DHT22;3706;49.198;7.064;2024-01-15T13:27:05;1.90;99.90
7331;DHT22;3706;49.198;7.064;2024-01-15T13:29:32;1.80;99.90
7331;DHT22;3706;49.198;7.064;2024-01-15T13:32:24;1.70;99.90
7331;DHT22;3706;49.198;7.064;2024-01-15T13:35:33;1.70;99.90
7331;DHT22;3706;49.198;7.064;2024-01-15T13:38:25;1.70;99.90
7331;DHT22;3706;49.198;7.064;2024-01-15T13:41:19;1.70;99.90
7331;DHT22;3706;49.198;7.064;2024-01-15T13:43:55;1.60;99.90
7331;DHT22;3706;49.198;7.064;2024-01-15T13:46:24;1.50;99.90
7331;DHT22;3706;49.198;7.064;2024-01-15T13:48:52;1.60;99.90
7331;DHT22;3706;49.198;7.064;2024-01-15T13:51:22;1.80;99.90
7331;DHT22;3706;49.198;7.064;2024-01-15T13:53:50;1.90;99.90
7331;DHT22;3706;49.198;7.064;2024-01-15T13:56:17;2.00;99.90
7331;DHT22;3706;49.198;7.064;2024-01-15T13:58:44;2.00;99.90
7331;DHT22;3706;49.198;7.064;2024-01-15T14:01:12;2.00;99.90
7331;DHT22;3706;49.198;7.064;2024-01-15T14:03:39;2.00;99.90
7331;DHT22;3706;49.198;7.064;2024-01-15T14:06:06;2.00;99.90
7331;DHT22;3706;49.198;7.064;2024-01-15T14:08:36;2.00;99.90
7331;DHT22;3706;49.198;7.064;2024-01-15T14:11:04;2.00;99.90
7331;DHT22;3706;49.198;7.064;2024-01-15T14:13:35;2.00;99.90
7331;DHT22;3706;49.198;7.064;2024-01-15T14:16:02;1.80;99.90
7331;DHT22;3706;49.198;7.064;2024-01-15T14:18:30;1.60;99.90
7331;DHT22;3706;49.198;7.064;2024-01-15T14:20:58;1.40;99.90
7331;DHT22;3706;49.198;7.064;2024-01-15T14:23:25;1.30;99.90
7331;DHT22;3706;49.198;7.064;2024-01-15T14:25:52;1.20;99.90
7331;DHT22;3706;49.198;7.064;2024-01-15T14:28:19;1.10;99.90
7331;DHT22;3706;49.198;7.064;2024-01-15T14:30:46;1.00;99.90
7331;DHT22;3706;49.198;7.064;2024-01-15T14:33:13;0.90;99.90
7331;DHT22;3706;49.198;7.064;2024-01-15T14:35:42;0.90;99.90
7331;DHT22;3706;49.198;7.064;2024-01-15T14:38:12;0.80;99.90
7331;DHT22;3706;49.198;7.064;2024-01-15T14:40:39;0.80;99.90
7331;DHT22;3706;49.198;7.064;2024-01-15T14:43:06;0.70;99.90
7331;DHT22;3706;49.198;7.064;2024-01-15T14:45:33;0.70;99.90
7331;DHT22;3706;49.198;7.064;2024-01-15T14:48:00;0.70;99.90
7331;DHT22;3706;49.198;7.064;2024-01-15T14:50:28;0.70;99.90
7331;DHT22;3706;49.198;7.064;2024-01-15T14:59:24;1.30;99.90
7331;DHT22;3706;49.198;7.064;2024-01-15T15:01:51;1.40;99.90
7331;DHT22;3706;49.198;7.064;2024-01-15T15:04:19;1.40;99.90
7331;DHT22;3706;49.198;7.064;2024-01-15T15:06:46;1.50;99.90
7331;DHT22;3706;49.198;7.064;2024-01-15T15:09:13;1.40;99.90
7331;DHT22;3706;49.198;7.064;2024-01-15T15:11:41;1.40;99.90
7331;DHT22;3706;49.198;7.064;2024-01-15T15:14:08;1.30;99.90
7331;DHT22;3706;49.198;7.064;2024-01-15T15:16:37;1.20;99.90
7331;DHT22;3706;49.198;7.064;2024-01-15T15:19:04;1.20;99.90
7331;DHT22;3706;49.198;7.064;2024-01-15T15:21:31;1.20;99.90
7331;DHT22;3706;49.198;7.064;2024-01-15T15:23:58;1.20;99.90
7331;DHT22;3706;49.198;7.064;2024-01-15T15:26:26;1.20;99.90
7331;DHT22;3706;49.198;7.064;2024-01-15T15:28:53;1.10;99.90
7331;DHT22;3706;49.198;7.064;2024-01-15T15:31:20;1.00;99.90
7331;DHT22;3706;49.198;7.064;2024-01-15T15:33:49;0.90;99.90
7331;DHT22;3706;49.198;7.064;2024-01-15T15:36:16;0.70;99.90
7331;DHT22;3706;49.198;7.064;2024-01-15T15:38:44;0.60;99.90
7331;DHT22;3706;49.198;7.064;2024-01-15T15:41:11;0.50;99.90
7331;DHT22;3706;49.198;7.064;2024-01-15T15:43:38;0.50;99.90
7331;DHT22;3706;49.198;7.064;2024-01-15T15:46:06;0.50;99.90
7331;DHT22;3706;49.198;7.064;2024-01-15T15:48:34;0.40;99.90
7331;DHT22;3706;49.198;7.064;2024-01-15T15:51:03;0.30;99.90
7331;DHT22;3706;49.198;7.064;2024-01-15T15:53:31;0.20;99.90
7331;DHT22;3706;49.198;7.064;2024-01-15T15:55:58;0.10;99.90
7331;DHT22;3706;49.198;7.064;2024-01-15T15:58:25;0.00;99.90
7331;DHT22;3706;49.198;7.064;2024-01-15T16:00:53;-0.10;99.90
7331;DHT22;3706;49.198;7.064;2024-01-15T16:03:20;-0.20;99.90
7331;DHT22;3706;49.198;7.064;2024-01-15T16:05:47;-0.20;99.90
7331;DHT22;3706;49.198;7.064;2024-01-15T16:08:15;-0.30;99.90
7331;DHT22;3706;49.198;7.064;2024-01-15T16:10:43;-0.40;99.90
7331;DHT22;3706;49.198;7.064;2024-01-15T16:13:13;-0.40;99.90
7331;DHT22;3706;49.198;7.064;2024-01-15T16:15:41;-0.50;99.90
7331;DHT22;3706;49.198;7.064;2024-01-15T16:18:08;-0.50;99.90
7331;DHT22;3706;49.198;7.064;2024-01-15T16:20:35;-0.60;99.90
7331;DHT22;3706;49.198;7.064;2024-01-15T16:23:02;-0.80;99.90
7331;DHT22;3706;49.198;7.064;2024-01-15T16:25:30;-0.90;99.90
7331;DHT22;3706;49.198;7.064;2024-01-15T16:27:57;-1.00;99.90
7331;DHT22;3706;49.198;7.064;2024-01-15T16:30:24;-1.10;99.90
7331;DHT22;3706;49.198;7.064;2024-01-15T16:32:51;-1.20;99.90
7331;DHT22;3706;49.198;7.064;2024-01-15T16:35:18;-1.20;99.90
7331;DHT22;3706;49.198;7.064;2024-01-15T16:37:45;-1.30;99.90
7331;DHT22;3706;49.198;7.064;2024-01-15T16:40:12;-1.30;99.90